Terminal Aerodrome Forecast
Issued by NWS

Home | Current Version | Previous Version | Text Only | Print | Product List | Glossary On
Versions: 1 2 3 4 5 6 7 8 9 10 11 12 13 14 15 16 17 18 19 20
000
FTUS46 KMFR 290500
TAFOTH
TAF
KOTH 290524Z 2906/3006 34004KT 3SM BR VCFG OVC003
     FM290900 35010KT 3/4SM BR VCFG OVC002
     FM291600 VRB03KT 3SM BR OVC003
     FM291800 34010G19KT P6SM BKN012
     FM300200 34008KT P6SM OVC008=

USA.gov is the U.S. government's official web portal to all federal, state and local government web resources and services.